Pelly, Canada
Current Conditions -  °F | °C
As of 6:00 AM on Sunday 23 Nov 2014 (Local Time) from CYQV Reporting Station
Light Snow Light Snow  
Wind Chill: -10°   Ceiling: 1700
Heat Index: 10°   Visibility: 2mi
Dew Point:   Wind: 24mph
Humidity: 85%   Direction: 20°NNE
Pressure: 29.5"   Gusts: 32mph
Location:  51.87°N, 101.92°W
Report Text: CYQV 231200Z AUTO 02021G28KT 2SM -SN BLSN OVC017 M12/M14 A2950 RMK PRESRR SLP025
Loading
Personal Weather Stations






























Interactive Weather Map New forecast layout! Learn more

10-Day Weather Forecast

Advertisements
Track Severe Weather on mobile